sensor_id;sensor_type;location;lat;lon;timestamp;temperature;humidity
15298;DHT22;7750;48.796;9.026;2023-02-01T00:02:04;7.10;80.00
15298;DHT22;7750;48.796;9.026;2023-02-01T00:07:04;7.00;79.70
15298;DHT22;7750;48.796;9.026;2023-02-01T00:12:05;7.00;79.50
15298;DHT22;7750;48.796;9.026;2023-02-01T00:17:06;7.00;79.90
15298;DHT22;7750;48.796;9.026;2023-02-01T00:22:07;7.00;79.80
15298;DHT22;7750;48.796;9.026;2023-02-01T00:27:08;7.00;79.90
15298;DHT22;7750;48.796;9.026;2023-02-01T00:32:08;7.00;79.90
15298;DHT22;7750;48.796;9.026;2023-02-01T00:37:09;7.00;79.70
15298;DHT22;7750;48.796;9.026;2023-02-01T00:42:09;7.00;79.80
15298;DHT22;7750;48.796;9.026;2023-02-01T00:47:10;7.10;79.80
15298;DHT22;7750;48.796;9.026;2023-02-01T00:52:11;7.10;79.90
15298;DHT22;7750;48.796;9.026;2023-02-01T00:57:11;7.10;79.70
15298;DHT22;7750;48.796;9.026;2023-02-01T01:02:12;7.20;79.60
15298;DHT22;7750;48.796;9.026;2023-02-01T01:07:14;7.20;79.60
15298;DHT22;7750;48.796;9.026;2023-02-01T01:12:15;7.20;79.50
15298;DHT22;7750;48.796;9.026;2023-02-01T01:17:16;7.20;79.60
15298;DHT22;7750;48.796;9.026;2023-02-01T01:22:16;7.20;79.50
15298;DHT22;7750;48.796;9.026;2023-02-01T01:27:18;7.20;79.40
15298;DHT22;7750;48.796;9.026;2023-02-01T01:32:23;7.30;80.20
15298;DHT22;7750;48.796;9.026;2023-02-01T01:37:23;7.20;79.30
15298;DHT22;7750;48.796;9.026;2023-02-01T01:42:24;7.30;79.40
15298;DHT22;7750;48.796;9.026;2023-02-01T01:47:35;7.30;79.30
15298;DHT22;7750;48.796;9.026;2023-02-01T01:52:38;7.30;79.30
15298;DHT22;7750;48.796;9.026;2023-02-01T01:57:44;7.30;79.20
15298;DHT22;7750;48.796;9.026;2023-02-01T02:02:48;7.30;79.20
15298;DHT22;7750;48.796;9.026;2023-02-01T02:07:51;7.30;79.10
15298;DHT22;7750;48.796;9.026;2023-02-01T02:12:52;7.30;79.10
15298;DHT22;7750;48.796;9.026;2023-02-01T02:17:55;7.30;79.20
15298;DHT22;7750;48.796;9.026;2023-02-01T02:39:48;7.40;79.00
15298;DHT22;7750;48.796;9.026;2023-02-01T02:45:09;7.40;79.60
15298;DHT22;7750;48.796;9.026;2023-02-01T02:50:42;7.40;79.10
15298;DHT22;7750;48.796;9.026;2023-02-01T02:56:07;7.40;79.20
15298;DHT22;7750;48.796;9.026;2023-02-01T03:01:27;7.40;79.00
15298;DHT22;7750;48.796;9.026;2023-02-01T03:06:47;7.50;79.20
15298;DHT22;7750;48.796;9.026;2023-02-01T03:11:49;7.40;79.10
15298;DHT22;7750;48.796;9.026;2023-02-01T03:17:15;7.40;79.20
15298;DHT22;7750;48.796;9.026;2023-02-01T03:22:23;7.50;79.20
15298;DHT22;7750;48.796;9.026;2023-02-01T03:27:32;7.50;79.40
15298;DHT22;7750;48.796;9.026;2023-02-01T03:32:34;7.40;79.60
15298;DHT22;7750;48.796;9.026;2023-02-01T03:38:02;7.40;79.50
15298;DHT22;7750;48.796;9.026;2023-02-01T03:43:06;7.50;79.60
15298;DHT22;7750;48.796;9.026;2023-02-01T03:48:12;7.40;79.50
15298;DHT22;7750;48.796;9.026;2023-02-01T03:53:20;7.40;79.70
15298;DHT22;7750;48.796;9.026;2023-02-01T03:58:22;7.50;80.40
15298;DHT22;7750;48.796;9.026;2023-02-01T04:03:24;7.40;79.50
15298;DHT22;7750;48.796;9.026;2023-02-01T04:08:25;7.40;79.80
15298;DHT22;7750;48.796;9.026;2023-02-01T04:13:25;7.40;79.50
15298;DHT22;7750;48.796;9.026;2023-02-01T04:18:26;7.50;80.40
15298;DHT22;7750;48.796;9.026;2023-02-01T04:23:27;7.50;79.90
15298;DHT22;7750;48.796;9.026;2023-02-01T04:28:28;7.50;79.70
15298;DHT22;7750;48.796;9.026;2023-02-01T04:33:29;7.50;79.80
15298;DHT22;7750;48.796;9.026;2023-02-01T04:38:30;7.50;79.50
15298;DHT22;7750;48.796;9.026;2023-02-01T04:43:32;7.50;80.10
15298;DHT22;7750;48.796;9.026;2023-02-01T04:48:33;7.50;79.60
15298;DHT22;7750;48.796;9.026;2023-02-01T04:53:33;7.50;79.70
15298;DHT22;7750;48.796;9.026;2023-02-01T04:58:34;7.50;79.60
15298;DHT22;7750;48.796;9.026;2023-02-01T05:03:35;7.50;79.30
15298;DHT22;7750;48.796;9.026;2023-02-01T05:08:35;7.50;79.50
15298;DHT22;7750;48.796;9.026;2023-02-01T05:13:36;7.50;79.50
15298;DHT22;7750;48.796;9.026;2023-02-01T05:18:49;7.50;79.50
15298;DHT22;7750;48.796;9.026;2023-02-01T05:23:49;7.60;79.50
15298;DHT22;7750;48.796;9.026;2023-02-01T05:29:09;7.60;79.60
15298;DHT22;7750;48.796;9.026;2023-02-01T05:34:10;7.60;79.50
15298;DHT22;7750;48.796;9.026;2023-02-01T05:39:11;7.60;79.50
15298;DHT22;7750;48.796;9.026;2023-02-01T05:44:12;7.60;79.60
15298;DHT22;7750;48.796;9.026;2023-02-01T05:49:12;7.70;79.70
15298;DHT22;7750;48.796;9.026;2023-02-01T05:54:13;7.70;80.20
15298;DHT22;7750;48.796;9.026;2023-02-01T05:59:14;7.70;80.90
15298;DHT22;7750;48.796;9.026;2023-02-01T06:04:14;7.70;80.80
15298;DHT22;7750;48.796;9.026;2023-02-01T06:09:15;7.80;80.80
15298;DHT22;7750;48.796;9.026;2023-02-01T06:14:15;7.70;80.80
15298;DHT22;7750;48.796;9.026;2023-02-01T06:19:16;7.70;80.80
15298;DHT22;7750;48.796;9.026;2023-02-01T06:24:17;7.70;80.70
15298;DHT22;7750;48.796;9.026;2023-02-01T06:29:17;7.70;80.60
15298;DHT22;7750;48.796;9.026;2023-02-01T06:34:18;7.70;80.50
15298;DHT22;7750;48.796;9.026;2023-02-01T06:39:19;7.70;80.30
15298;DHT22;7750;48.796;9.026;2023-02-01T06:44:20;7.80;80.30
15298;DHT22;7750;48.796;9.026;2023-02-01T06:49:21;7.90;80.20
15298;DHT22;7750;48.796;9.026;2023-02-01T06:54:22;8.00;79.70
15298;DHT22;7750;48.796;9.026;2023-02-01T06:59:22;7.90;79.50
15298;DHT22;7750;48.796;9.026;2023-02-01T07:04:23;8.00;79.30
15298;DHT22;7750;48.796;9.026;2023-02-01T07:09:24;8.00;79.60
15298;DHT22;7750;48.796;9.026;2023-02-01T07:14:24;8.00;78.60
15298;DHT22;7750;48.796;9.026;2023-02-01T07:19:25;8.10;78.50
15298;DHT22;7750;48.796;9.026;2023-02-01T07:24:26;8.10;77.90
15298;DHT22;7750;48.796;9.026;2023-02-01T07:29:26;8.10;77.70
15298;DHT22;7750;48.796;9.026;2023-02-01T07:34:27;8.20;77.50
15298;DHT22;7750;48.796;9.026;2023-02-01T07:39:27;8.20;77.20
15298;DHT22;7750;48.796;9.026;2023-02-01T07:44:28;8.20;77.20
15298;DHT22;7750;48.796;9.026;2023-02-01T07:49:29;8.30;77.10
15298;DHT22;7750;48.796;9.026;2023-02-01T07:54:30;8.20;76.70
15298;DHT22;7750;48.796;9.026;2023-02-01T07:59:30;8.30;76.80
15298;DHT22;7750;48.796;9.026;2023-02-01T08:04:31;8.30;76.40
15298;DHT22;7750;48.796;9.026;2023-02-01T08:09:32;8.30;76.10
15298;DHT22;7750;48.796;9.026;2023-02-01T08:14:32;8.30;76.50
15298;DHT22;7750;48.796;9.026;2023-02-01T08:19:33;8.30;76.00
15298;DHT22;7750;48.796;9.026;2023-02-01T08:24:34;8.40;75.60
15298;DHT22;7750;48.796;9.026;2023-02-01T08:29:34;8.40;75.50
15298;DHT22;7750;48.796;9.026;2023-02-01T08:34:35;8.40;75.40
15298;DHT22;7750;48.796;9.026;2023-02-01T08:39:35;8.50;75.40
15298;DHT22;7750;48.796;9.026;2023-02-01T08:44:37;8.50;74.80
15298;DHT22;7750;48.796;9.026;2023-02-01T08:49:37;8.60;75.10
15298;DHT22;7750;48.796;9.026;2023-02-01T08:54:38;8.60;74.20
15298;DHT22;7750;48.796;9.026;2023-02-01T08:59:41;9.00;73.30
15298;DHT22;7750;48.796;9.026;2023-02-01T09:04:43;8.90;73.80
15298;DHT22;7750;48.796;9.026;2023-02-01T09:09:45;8.90;73.80
15298;DHT22;7750;48.796;9.026;2023-02-01T09:14:45;8.80;73.80
15298;DHT22;7750;48.796;9.026;2023-02-01T09:19:46;8.80;73.70
15298;DHT22;7750;48.796;9.026;2023-02-01T09:24:47;8.80;74.40
15298;DHT22;7750;48.796;9.026;2023-02-01T09:29:47;8.70;73.70
15298;DHT22;7750;48.796;9.026;2023-02-01T09:34:53;8.80;73.70
15298;DHT22;7750;48.796;9.026;2023-02-01T09:39:53;8.80;73.50
15298;DHT22;7750;48.796;9.026;2023-02-01T09:45:20;8.80;73.30
15298;DHT22;7750;48.796;9.026;2023-02-01T09:50:32;8.80;72.70
15298;DHT22;7750;48.796;9.026;2023-02-01T09:55:40;8.90;72.70
15298;DHT22;7750;48.796;9.026;2023-02-01T10:00:53;8.90;72.80
15298;DHT22;7750;48.796;9.026;2023-02-01T10:16:43;9.00;71.40
15298;DHT22;7750;48.796;9.026;2023-02-01T10:27:29;9.10;70.60
15298;DHT22;7750;48.796;9.026;2023-02-01T10:32:34;9.00;71.00
15298;DHT22;7750;48.796;9.026;2023-02-01T10:37:35;9.00;70.10
15298;DHT22;7750;48.796;9.026;2023-02-01T10:42:36;9.10;70.30
15298;DHT22;7750;48.796;9.026;2023-02-01T10:47:36;9.20;70.50
15298;DHT22;7750;48.796;9.026;2023-02-01T10:52:48;9.20;69.80
15298;DHT22;7750;48.796;9.026;2023-02-01T10:58:15;9.20;68.70
15298;DHT22;7750;48.796;9.026;2023-02-01T11:03:31;9.20;69.20
15298;DHT22;7750;48.796;9.026;2023-02-01T11:08:32;9.20;68.40
15298;DHT22;7750;48.796;9.026;2023-02-01T11:13:37;9.20;68.30
15298;DHT22;7750;48.796;9.026;2023-02-01T11:18:38;9.20;68.70
15298;DHT22;7750;48.796;9.026;2023-02-01T11:23:44;9.20;68.10
15298;DHT22;7750;48.796;9.026;2023-02-01T11:28:53;9.20;68.00
15298;DHT22;7750;48.796;9.026;2023-02-01T11:39:21;9.30;67.20
15298;DHT22;7750;48.796;9.026;2023-02-01T11:44:42;9.30;66.80
15298;DHT22;7750;48.796;9.026;2023-02-01T11:49:43;9.40;66.20
15298;DHT22;7750;48.796;9.026;2023-02-01T12:00:25;9.50;65.70
15298;DHT22;7750;48.796;9.026;2023-02-01T12:11:36;9.50;65.20
15298;DHT22;7750;48.796;9.026;2023-02-01T12:22:29;9.50;65.30
15298;DHT22;7750;48.796;9.026;2023-02-01T12:33:21;9.50;65.10
15298;DHT22;7750;48.796;9.026;2023-02-01T12:43:42;9.40;65.40
15298;DHT22;7750;48.796;9.026;2023-02-01T12:49:02;9.40;65.90
15298;DHT22;7750;48.796;9.026;2023-02-01T12:59:34;9.30;66.80
15298;DHT22;7750;48.796;9.026;2023-02-01T13:04:44;9.30;66.60
15298;DHT22;7750;48.796;9.026;2023-02-01T13:09:57;9.20;67.00
15298;DHT22;7750;48.796;9.026;2023-02-01T13:15:28;9.20;67.20
15298;DHT22;7750;48.796;9.026;2023-02-01T13:20:37;9.20;66.50
15298;DHT22;7750;48.796;9.026;2023-02-01T13:25:50;9.10;66.60
15298;DHT22;7750;48.796;9.026;2023-02-01T13:31:17;9.10;66.80
15298;DHT22;7750;48.796;9.026;2023-02-01T13:46:56;9.10;67.00
15298;DHT22;7750;48.796;9.026;2023-02-01T13:51:58;9.10;67.70
15298;DHT22;7750;48.796;9.026;2023-02-01T13:57:01;9.10;67.60
15298;DHT22;7750;48.796;9.026;2023-02-01T14:13:24;9.10;67.30
15298;DHT22;7750;48.796;9.026;2023-02-01T14:18:49;9.10;66.70
15298;DHT22;7750;48.796;9.026;2023-02-01T14:23:59;9.10;67.20
15298;DHT22;7750;48.796;9.026;2023-02-01T14:29:25;9.10;67.10
15298;DHT22;7750;48.796;9.026;2023-02-01T14:34:38;9.10;67.20
15298;DHT22;7750;48.796;9.026;2023-02-01T14:44:46;9.00;67.10
15298;DHT22;7750;48.796;9.026;2023-02-01T15:00:35;9.00;68.20
15298;DHT22;7750;48.796;9.026;2023-02-01T15:05:36;9.00;68.00
15298;DHT22;7750;48.796;9.026;2023-02-01T15:10:43;9.10;68.20
15298;DHT22;7750;48.796;9.026;2023-02-01T15:15:44;9.10;67.80
15298;DHT22;7750;48.796;9.026;2023-02-01T15:20:56;9.00;68.00
15298;DHT22;7750;48.796;9.026;2023-02-01T15:25:57;9.10;67.80
15298;DHT22;7750;48.796;9.026;2023-02-01T15:31:04;9.00;68.00
15298;DHT22;7750;48.796;9.026;2023-02-01T15:41:07;8.90;68.10
15298;DHT22;7750;48.796;9.026;2023-02-01T15:46:14;9.00;68.00
15298;DHT22;7750;48.796;9.026;2023-02-01T15:51:21;9.00;67.40
15298;DHT22;7750;48.796;9.026;2023-02-01T15:56:25;9.00;66.70
15298;DHT22;7750;48.796;9.026;2023-02-01T16:01:41;9.00;66.40
15298;DHT22;7750;48.796;9.026;2023-02-01T16:07:02;9.00;65.70
15298;DHT22;7750;48.796;9.026;2023-02-01T16:17:28;9.00;65.80
15298;DHT22;7750;48.796;9.026;2023-02-01T16:22:31;9.00;65.30
15298;DHT22;7750;48.796;9.026;2023-02-01T16:27:32;9.00;65.70
15298;DHT22;7750;48.796;9.026;2023-02-01T16:32:33;9.00;65.40
15298;DHT22;7750;48.796;9.026;2023-02-01T16:37:34;9.00;65.60
15298;DHT22;7750;48.796;9.026;2023-02-01T16:42:37;9.10;65.40
15298;DHT22;7750;48.796;9.026;2023-02-01T16:47:41;9.10;65.70
15298;DHT22;7750;48.796;9.026;2023-02-01T16:52:44;9.10;66.30
15298;DHT22;7750;48.796;9.026;2023-02-01T16:57:44;9.10;65.30
15298;DHT22;7750;48.796;9.026;2023-02-01T17:02:45;9.60;64.00
15298;DHT22;7750;48.796;9.026;2023-02-01T17:07:46;9.40;64.20
15298;DHT22;7750;48.796;9.026;2023-02-01T17:12:47;9.30;64.50
15298;DHT22;7750;48.796;9.026;2023-02-01T17:17:47;9.20;64.40
15298;DHT22;7750;48.796;9.026;2023-02-01T17:22:54;9.20;64.60
15298;DHT22;7750;48.796;9.026;2023-02-01T17:27:54;9.10;64.70
15298;DHT22;7750;48.796;9.026;2023-02-01T17:32:55;9.10;64.70
15298;DHT22;7750;48.796;9.026;2023-02-01T17:37:58;9.10;64.80
15298;DHT22;7750;48.796;9.026;2023-02-01T17:42:59;9.10;65.10
15298;DHT22;7750;48.796;9.026;2023-02-01T17:48:00;9.10;65.30
15298;DHT22;7750;48.796;9.026;2023-02-01T17:53:00;9.10;65.60
15298;DHT22;7750;48.796;9.026;2023-02-01T17:58:02;9.10;65.80
15298;DHT22;7750;48.796;9.026;2023-02-01T18:03:03;9.00;66.00
15298;DHT22;7750;48.796;9.026;2023-02-01T18:08:04;9.00;66.00
15298;DHT22;7750;48.796;9.026;2023-02-01T18:13:05;9.00;66.10
15298;DHT22;7750;48.796;9.026;2023-02-01T18:18:06;9.00;66.40
15298;DHT22;7750;48.796;9.026;2023-02-01T18:23:17;8.90;66.40
15298;DHT22;7750;48.796;9.026;2023-02-01T18:28:19;9.00;66.50
15298;DHT22;7750;48.796;9.026;2023-02-01T18:33:20;9.00;66.70
15298;DHT22;7750;48.796;9.026;2023-02-01T18:38:24;8.90;66.60
15298;DHT22;7750;48.796;9.026;2023-02-01T18:43:27;8.90;66.40
15298;DHT22;7750;48.796;9.026;2023-02-01T18:48:31;8.90;66.30
15298;DHT22;7750;48.796;9.026;2023-02-01T18:53:32;9.00;66.30
15298;DHT22;7750;48.796;9.026;2023-02-01T18:58:36;9.00;65.90
15298;DHT22;7750;48.796;9.026;2023-02-01T19:03:36;9.00;65.90
15298;DHT22;7750;48.796;9.026;2023-02-01T19:08:49;9.00;65.90
15298;DHT22;7750;48.796;9.026;2023-02-01T19:13:50;9.00;65.90
15298;DHT22;7750;48.796;9.026;2023-02-01T19:18:51;8.90;65.60
15298;DHT22;7750;48.796;9.026;2023-02-01T19:23:52;8.90;66.00
15298;DHT22;7750;48.796;9.026;2023-02-01T19:28:53;8.90;65.60
15298;DHT22;7750;48.796;9.026;2023-02-01T19:33:53;8.90;65.90
15298;DHT22;7750;48.796;9.026;2023-02-01T19:38:54;8.90;66.10
15298;DHT22;7750;48.796;9.026;2023-02-01T19:43:55;8.80;66.20
15298;DHT22;7750;48.796;9.026;2023-02-01T19:48:58;8.90;66.60
15298;DHT22;7750;48.796;9.026;2023-02-01T19:54:05;8.80;66.80
15298;DHT22;7750;48.796;9.026;2023-02-01T19:59:11;8.80;66.90
15298;DHT22;7750;48.796;9.026;2023-02-01T20:04:16;8.80;66.70
15298;DHT22;7750;48.796;9.026;2023-02-01T20:09:21;8.80;66.80
15298;DHT22;7750;48.796;9.026;2023-02-01T20:14:23;8.80;66.90
15298;DHT22;7750;48.796;9.026;2023-02-01T20:19:28;8.90;67.30
15298;DHT22;7750;48.796;9.026;2023-02-01T20:24:30;8.90;67.30
15298;DHT22;7750;48.796;9.026;2023-02-01T20:29:31;8.90;67.30
15298;DHT22;7750;48.796;9.026;2023-02-01T20:34:39;8.90;67.50
15298;DHT22;7750;48.796;9.026;2023-02-01T20:39:43;8.90;67.40
15298;DHT22;7750;48.796;9.026;2023-02-01T20:44:56;8.90;67.90
15298;DHT22;7750;48.796;9.026;2023-02-01T20:49:57;9.00;68.00
15298;DHT22;7750;48.796;9.026;2023-02-01T20:55:01;9.00;67.90
15298;DHT22;7750;48.796;9.026;2023-02-01T21:00:11;9.00;68.10
15298;DHT22;7750;48.796;9.026;2023-02-01T21:05:11;9.00;67.90
15298;DHT22;7750;48.796;9.026;2023-02-01T21:10:12;9.00;67.80
15298;DHT22;7750;48.796;9.026;2023-02-01T21:15:13;9.00;67.80
15298;DHT22;7750;48.796;9.026;2023-02-01T21:20:16;9.00;67.40
15298;DHT22;7750;48.796;9.026;2023-02-01T21:25:30;9.00;67.40
15298;DHT22;7750;48.796;9.026;2023-02-01T21:30:31;9.10;67.20
15298;DHT22;7750;48.796;9.026;2023-02-01T21:35:32;9.00;67.20
15298;DHT22;7750;48.796;9.026;2023-02-01T21:40:33;9.00;67.20
15298;DHT22;7750;48.796;9.026;2023-02-01T21:45:33;9.10;67.30
15298;DHT22;7750;48.796;9.026;2023-02-01T21:50:34;9.10;67.70
15298;DHT22;7750;48.796;9.026;2023-02-01T21:55:35;9.10;67.80
15298;DHT22;7750;48.796;9.026;2023-02-01T22:00:36;9.10;67.60
15298;DHT22;7750;48.796;9.026;2023-02-01T22:05:36;9.10;67.90
15298;DHT22;7750;48.796;9.026;2023-02-01T22:10:37;9.10;67.80
15298;DHT22;7750;48.796;9.026;2023-02-01T22:15:38;9.10;67.80
15298;DHT22;7750;48.796;9.026;2023-02-01T22:20:39;9.10;68.60
15298;DHT22;7750;48.796;9.026;2023-02-01T22:25:39;9.10;69.30
15298;DHT22;7750;48.796;9.026;2023-02-01T22:30:40;9.10;69.00
15298;DHT22;7750;48.796;9.026;2023-02-01T22:35:40;9.10;69.50
15298;DHT22;7750;48.796;9.026;2023-02-01T22:40:41;9.10;69.90
15298;DHT22;7750;48.796;9.026;2023-02-01T22:45:42;9.00;70.20
15298;DHT22;7750;48.796;9.026;2023-02-01T22:50:43;9.00;70.40
15298;DHT22;7750;48.796;9.026;2023-02-01T22:55:46;8.90;70.30
15298;DHT22;7750;48.796;9.026;2023-02-01T23:00:51;8.90;70.50
15298;DHT22;7750;48.796;9.026;2023-02-01T23:05:57;8.90;70.50
15298;DHT22;7750;48.796;9.026;2023-02-01T23:11:08;8.90;70.40
15298;DHT22;7750;48.796;9.026;2023-02-01T23:16:16;8.90;70.30
15298;DHT22;7750;48.796;9.026;2023-02-01T23:21:18;8.90;70.30
15298;DHT22;7750;48.796;9.026;2023-02-01T23:26:20;8.90;70.20
15298;DHT22;7750;48.796;9.026;2023-02-01T23:31:23;8.90;70.10
15298;DHT22;7750;48.796;9.026;2023-02-01T23:36:26;8.90;70.10
15298;DHT22;7750;48.796;9.026;2023-02-01T23:41:27;8.90;70.10
15298;DHT22;7750;48.796;9.026;2023-02-01T23:46:47;8.90;70.30
15298;DHT22;7750;48.796;9.026;2023-02-01T23:51:47;8.90;70.70
15298;DHT22;7750;48.796;9.026;2023-02-01T23:56:52;8.90;70.90
